Terminal Aerodrome Forecast
Issued by NWS Lake Charles, LA

Home | Current Version | Previous Version | Text Only | Print | Product List | Glossary On
Versions: 1 2 3 4 5 6 7 8 9 10 11 12
000
FTUS44 KLCH 261100
TAFARA
TAF
KARA 261123Z 2612/2712 11006KT P6SM BKN040
     FM261900 14011KT P6SM VCSH BKN025
     FM270400 12009KT 4SM BR VCSH OVC007=

USA.gov is the U.S. government's official web portal to all federal, state and local government web resources and services.